Terminal Aerodrome Forecast
Issued by NWS

Home | Current Version | Previous Version | Text Only | Print | Product List | Glossary On
Versions: 1 2 3 4 5 6 7 8 9 10 11 12 13
000
FTUS42 KMLB 291732
TAFLEE
TAF
KLEE 291732Z 2918/3018 08011G17KT P6SM VCSH SCT040 SCT070
      TEMPO 2918/2921 TS BKN023CB BKN050
     FM292100 08011KT P6SM VCSH SCT030 BKN060
     FM300000 06005KT P6SM SCT030 SCT100 BKN250
     FM301500 10008KT P6SM VCSH SCT035 BKN100=

USA.gov is the U.S. government's official web portal to all federal, state and local government web resources and services.